Wyocena, Wisconsin
Current Conditions -  °F | °C
As of 6:10 PM on Sunday 25 Jan 2015 (Local Time) from KDLL Reporting Station
Broken Clouds Broken Clouds  
Wind Chill: 11°   Ceiling: 12000
Heat Index: 18°   Visibility: 10mi
Dew Point: 10°   Wind: 5mph
Humidity: 73%   Direction: 60°ENE
Pressure: 30.03"   Gusts: NA
Location:  43.5°N, 89.31°W
Report Text: KDLL 260010Z AUTO 06004KT 10SM BKN120 M08/M12 A3003 RMK AO2 T10801120
Loading
Personal Weather Stations






























Interactive Weather Map New forecast layout! Learn more

10-Day Weather Forecast

Advertisements
Track Severe Weather on mobile